Terminal Aerodrome Forecast
Issued by NWS North Platte, NE

Home | Current Version | Previous Version | Text Only | Print | Product List | Glossary Off
Versions: 1 2 3 4 5 6 7 8 9 10 11 12 13 14

000
FTUS43 KLBF 280906 AAB
TAFVTN
TAF AMD
KVTN 280906Z 2809/2906 30012KT P6SM BKN200
     FM281100 31014G23KT P6SM SCT100 SCT250
     FM290100 34009KT P6SM SKC=

USA.gov is the U.S. government's official web portal to all federal, state and local government web resources and services.